Time;durP1;ratioP1;P1;durP2;ratioP2;P2;SDS_P1;SDS_P2;PMS_P1;PMS_P2;Temp;Humidity;BMP_temperature;BMP_pressure;BME280_temperature;BME280_humidity;BME280_pressure;Samples;Min_cycle;Max_cycle;Signal;HPM_P1;HPM_P2
2022/06/17 00:01:04;;;;;;;;;;;;;;;;;;5073732;28;19935;-81
2022/06/17 00:03:54;;;;;;;;;;;;;;;;;;5072765;28;19919;-81
2022/06/17 00:06:40;;;;;;;;;;;;;;;;;;5087384;28;19920;-82
2022/06/17 00:09:26;;;;;;;;;;;;;;;;;;5081562;28;19927;-82
2022/06/17 00:12:13;;;;;;;;;;;;;;;;;;5084894;28;19943;-81
2022/06/17 00:15:12;;;;;;;;;;;;;;;;;;5077596;28;19912;-81
2022/06/17 00:17:58;;;;;;;;;;;;;;;;;;5076337;28;19912;-82
2022/06/17 00:20:45;;;;;;;;;;;;;;;;;;5080606;28;19923;-81
2022/06/17 00:23:31;;;;;;;;;;;;;;;;;;5084679;28;19916;-81
2022/06/17 00:26:17;;;;;;;;;;;;;;;;;;5087448;28;19916;-81
2022/06/17 00:29:04;;;;;;;;;;;;;;;;;;5085964;28;19989;-83
2022/06/17 00:31:50;;;;;;;;;;;;;;;;;;5072520;28;19912;-82
2022/06/17 00:34:37;;;;;;;;;;;;;;;;;;5082076;28;20456;-82
2022/06/17 00:37:23;;;;;;;;;;;;;;;;;;5090749;28;19919;-81
2022/06/17 00:40:10;;;;;;;;;;;;;;;;;;5090208;28;19919;-81
2022/06/17 00:42:56;;;;;;;;;;;;;;;;;;5068226;28;20114;-81
2022/06/17 00:45:43;;;;;;;;;;;;;;;;;;5087915;28;19916;-81
2022/06/17 00:48:29;;;;;;;;;;;;;;;;;;5081609;28;19912;-82
2022/06/17 00:51:16;;;;;;;;;;;;;;;;;;5084815;28;19908;-81
2022/06/17 00:54:02;;;;;;;;;;;;;;;;;;5088549;28;19920;-81
2022/06/17 00:56:49;;;;;;;;;;;;;;;;;;5089606;28;19912;-81
2022/06/17 00:59:35;;;;;;;;;;;;;;;;;;5087894;28;19916;-83
2022/06/17 01:02:22;;;;;;;;;;;;;;;;;;5088595;28;19919;-81
2022/06/17 01:05:08;;;;;;;;;;;;;;;;;;5076190;28;20308;-83
2022/06/17 01:07:55;;;;;;;;;;;;;;;;;;5085835;28;19912;-81
2022/06/17 01:10:41;;;;;;;;;;;;;;;;;;5084416;28;19932;-84
2022/06/17 01:13:27;;;;;;;;;;;;;;;;;;5088740;28;19923;-81
2022/06/17 01:16:14;;;;;;;;;;;;;;;;;;5077469;28;19909;-81
2022/06/17 01:19:00;;;;;;;;;;;;;;;;;;5081076;28;19919;-82
2022/06/17 01:21:47;;;;;;;;;;;;;;;;;;5085942;28;19923;-82
2022/06/17 01:24:33;;;;;;;;;;;;;;;;;;5068843;28;19915;-82
2022/06/17 01:27:20;;;;;;;;;;;;;;;;;;5068794;28;19935;-82
2022/06/17 01:30:06;;;;;;;;;;;;;;;;;;5077979;28;19908;-82
2022/06/17 01:32:53;;;;;;;;;;;;;;;;;;5082661;28;19908;-81
2022/06/17 01:35:39;;;;;;;;;;;;;;;;;;5073956;28;19915;-80
2022/06/17 01:38:26;;;;;;;;;;;;;;;;;;5076947;28;19908;-81
2022/06/17 01:41:14;;;;;;;;;;;;;;;;;;5089000;28;19908;-82
2022/06/17 01:44:00;;;;;;;;;;;;;;;;;;5083817;28;19919;-81
2022/06/17 01:46:47;;;;;;;;;;;;;;;;;;5087298;28;19924;-81
2022/06/17 01:49:33;;;;;;;;;;;;;;;;;;5082706;28;19924;-81
2022/06/17 01:52:20;;;;;;;;;;;;;;;;;;5082239;28;20573;-81
2022/06/17 01:55:06;;;;;;;;;;;;;;;;;;5090541;28;19912;-80
2022/06/17 01:57:52;;;;;;;;;;;;;;;;;;5090087;28;19908;-80
2022/06/17 02:00:41;;;;;;;;;;;;;;;;;;5091393;28;19908;-82
2022/06/17 02:03:28;;;;;;;;;;;;;;;;;;5087216;28;19919;-81
2022/06/17 02:06:14;;;;;;;;;;;;;;;;;;5089108;28;20390;-82
2022/06/17 02:09:01;;;;;;;;;;;;;;;;;;5088837;28;19922;-81
2022/06/17 02:11:47;;;;;;;;;;;;;;;;;;5084971;28;19923;-81
2022/06/17 02:14:34;;;;;;;;;;;;;;;;;;5082515;28;19923;-81
2022/06/17 02:17:21;;;;;;;;;;;;;;;;;;5063166;28;19983;-81
2022/06/17 02:20:08;;;;;;;;;;;;;;;;;;5069094;28;19908;-81
2022/06/17 02:22:54;;;;;;;;;;;;;;;;;;5090592;28;19916;-82
2022/06/17 02:25:41;;;;;;;;;;;;;;;;;;5090376;28;19943;-81
2022/06/17 02:28:29;;;;;;;;;;;;;;;;;;5083036;28;19919;-82
2022/06/17 02:31:15;;;;;;;;;;;;;;;;;;5089194;28;19912;-81
2022/06/17 02:34:02;;;;;;;;;;;;;;;;;;5083691;28;20228;-81
2022/06/17 02:36:48;;;;;;;;;;;;;;;;;;5080131;28;19914;-83
2022/06/17 02:39:34;;;;;;;;;;;;;;;;;;5086324;28;19916;-82
2022/06/17 02:42:21;;;;;;;;;;;;;;;;;;5070440;28;20555;-81
2022/06/17 02:45:08;;;;;;;;;;;;;;;;;;5081679;28;20302;-80
2022/06/17 02:47:54;;;;;;;;;;;;;;;;;;5066060;28;19909;-82
2022/06/17 02:50:41;;;;;;;;;;;;;;;;;;5087838;28;20383;-83
2022/06/17 02:53:27;;;;;;;;;;;;;;;;;;5090682;28;19924;-82
2022/06/17 02:56:13;;;;;;;;;;;;;;;;;;5087943;28;20368;-82
2022/06/17 02:59:03;;;;;;;;;;;;;;;;;;5095333;28;19916;-82
2022/06/17 03:01:50;;;;;;;;;;;;;;;;;;5091332;28;20279;-82
2022/06/17 03:04:36;;;;;;;;;;;;;;;;;;5097097;28;19908;-85
2022/06/17 03:07:23;;;;;;;;;;;;;;;;;;5071171;28;19927;-83
2022/06/17 03:10:09;;;;;;;;;;;;;;;;;;5085972;28;20371;-83
2022/06/17 03:12:56;;;;;;;;;;;;;;;;;;5086153;28;19916;-83
2022/06/17 03:15:42;;;;;;;;;;;;;;;;;;5086973;28;19912;-83
2022/06/17 03:18:28;;;;;;;;;;;;;;;;;;5077320;28;19916;-82
2022/06/17 03:21:15;;;;;;;;;;;;;;;;;;5089183;28;19912;-83
2022/06/17 03:24:01;;;;;;;;;;;;;;;;;;5080231;28;19997;-83
2022/06/17 03:26:48;;;;;;;;;;;;;;;;;;5069235;28;20481;-83
2022/06/17 03:29:34;;;;;;;;;;;;;;;;;;5089173;28;19908;-82
2022/06/17 03:32:21;;;;;;;;;;;;;;;;;;5087566;28;19918;-82
2022/06/17 03:35:07;;;;;;;;;;;;;;;;;;5083992;28;19922;-83
2022/06/17 03:37:54;;;;;;;;;;;;;;;;;;5080286;28;19960;-84
2022/06/17 03:40:40;;;;;;;;;;;;;;;;;;5086808;28;19926;-84
2022/06/17 03:43:27;;;;;;;;;;;;;;;;;;5085654;28;20265;-83
2022/06/17 03:46:13;;;;;;;;;;;;;;;;;;5083079;28;19917;-83
2022/06/17 03:49:00;;;;;;;;;;;;;;;;;;5072573;28;20303;-83
2022/06/17 03:51:46;;;;;;;;;;;;;;;;;;5072318;28;19916;-83
2022/06/17 03:54:32;;;;;;;;;;;;;;;;;;5083898;28;19944;-83
2022/06/17 03:57:19;;;;;;;;;;;;;;;;;;5085454;28;20367;-84
2022/06/17 04:00:05;;;;;;;;;;;;;;;;;;5076897;28;19912;-83
2022/06/17 04:02:52;;;;;;;;;;;;;;;;;;5073880;28;19912;-83
2022/06/17 04:05:38;;;;;;;;;;;;;;;;;;5075689;28;20295;-82
2022/06/17 04:08:25;;;;;;;;;;;;;;;;;;5087314;28;19916;-82
2022/06/17 04:11:11;;;;;;;;;;;;;;;;;;5086285;28;20376;-83
2022/06/17 04:13:58;;;;;;;;;;;;;;;;;;5077670;28;19924;-83
2022/06/17 04:16:44;;;;;;;;;;;;;;;;;;5086940;28;20343;-83
2022/06/17 04:19:31;;;;;;;;;;;;;;;;;;5072800;28;19916;-83
2022/06/17 04:22:17;;;;;;;;;;;;;;;;;;5081034;28;19916;-83
2022/06/17 04:25:03;;;;;;;;;;;;;;;;;;5077338;28;19916;-83
2022/06/17 04:27:56;;;;;;;;;;;;;;;;;;5064986;28;19922;-83
2022/06/17 04:30:43;;;;;;;;;;;;;;;;;;5067181;28;19918;-83
2022/06/17 04:33:29;;;;;;;;;;;;;;;;;;5085871;28;20403;-83
2022/06/17 04:36:15;;;;;;;;;;;;;;;;;;5075611;28;19916;-83
2022/06/17 04:39:02;;;;;;;;;;;;;;;;;;5073646;28;19908;-82
2022/06/17 04:41:48;;;;;;;;;;;;;;;;;;5074293;28;20458;-83
2022/06/17 04:44:35;;;;;;;;;;;;;;;;;;5070175;28;19919;-83
2022/06/17 04:47:22;;;;;;;;;;;;;;;;;;5087594;28;19931;-81
2022/06/17 04:50:08;;;;;;;;;;;;;;;;;;5079520;28;20002;-82
2022/06/17 04:52:55;;;;;;;;;;;;;;;;;;5081929;28;19927;-82
2022/06/17 04:55:41;;;;;;;;;;;;;;;;;;5068958;28;19908;-83
2022/06/17 04:58:30;;;;;;;;;;;;;;;;;;5083162;28;19916;-85
2022/06/17 05:01:17;;;;;;;;;;;;;;;;;;5070853;28;19909;-82
2022/06/17 05:04:03;;;;;;;;;;;;;;;;;;5076260;28;19908;-83
2022/06/17 05:06:50;;;;;;;;;;;;;;;;;;5079903;28;19931;-84
2022/06/17 05:09:37;;;;;;;;;;;;;;;;;;5073033;28;20581;-83
2022/06/17 05:12:23;;;;;;;;;;;;;;;;;;5077184;28;19915;-83
2022/06/17 05:15:10;;;;;;;;;;;;;;;;;;5076559;28;19923;-85
2022/06/17 05:17:56;;;;;;;;;;;;;;;;;;5081421;28;19916;-82
2022/06/17 05:20:43;;;;;;;;;;;;;;;;;;5079686;28;19917;-87
2022/06/17 05:23:29;;;;;;;;;;;;;;;;;;5064574;28;19912;-88
2022/06/17 05:26:16;;;;;;;;;;;;;;;;;;5085803;28;20437;-87
2022/06/17 05:29:02;;;;;;;;;;;;;;;;;;5086886;28;19912;-89
2022/06/17 05:31:49;;;;;;;;;;;;;;;;;;5078087;28;19919;-86
2022/06/17 05:34:36;;;;;;;;;;;;;;;;;;5086169;28;19927;-87
2022/06/17 05:37:22;;;;;;;;;;;;;;;;;;5092984;28;19908;-88
2022/06/17 05:40:09;;;;;;;;;;;;;;;;;;5087864;28;19924;-88
2022/06/17 05:42:55;;;;;;;;;;;;;;;;;;5076923;28;19912;-89
2022/06/17 05:45:42;;;;;;;;;;;;;;;;;;5083256;28;20455;-88
2022/06/17 05:48:28;;;;;;;;;;;;;;;;;;5075958;28;19922;-88
2022/06/17 05:51:15;;;;;;;;;;;;;;;;;;5080502;28;20319;-89
2022/06/17 05:54:02;;;;;;;;;;;;;;;;;;5077170;28;19926;-87
2022/06/17 05:56:48;;;;;;;;;;;;;;;;;;5083490;28;20398;-86
2022/06/17 05:59:37;;;;;;;;;;;;;;;;;;5078838;28;19915;-86
2022/06/17 06:02:24;;;;;;;;;;;;;;;;;;5078610;28;20308;-87
2022/06/17 06:05:10;;;;;;;;;;;;;;;;;;5081409;28;19924;-90
2022/06/17 06:07:57;;;;;;;;;;;;;;;;;;5079247;28;19920;-90
2022/06/17 06:10:43;;;;;;;;;;;;;;;;;;5082511;28;19919;-80
2022/06/17 06:13:30;;;;;;;;;;;;;;;;;;5081291;28;20483;-89
2022/06/17 06:16:16;;;;;;;;;;;;;;;;;;5086955;28;19913;-89
2022/06/17 06:19:03;;;;;;;;;;;;;;;;;;5088532;28;19959;-91
2022/06/17 06:21:49;;;;;;;;;;;;;;;;;;5078169;28;19919;-91
2022/06/17 06:24:36;;;;;;;;;;;;;;;;;;5077901;28;19912;-90
2022/06/17 06:27:22;;;;;;;;;;;;;;;;;;5092831;28;19921;-89
2022/06/17 06:30:09;;;;;;;;;;;;;;;;;;5075386;28;19916;-87
2022/06/17 06:32:56;;;;;;;;;;;;;;;;;;5081288;28;19916;-87
2022/06/17 06:35:42;;;;;;;;;;;;;;;;;;5085171;28;19930;-87
2022/06/17 06:38:29;;;;;;;;;;;;;;;;;;5088231;28;19912;-85
2022/06/17 06:41:17;;;;;;;;;;;;;;;;;;5081953;28;19919;-85
2022/06/17 06:44:04;;;;;;;;;;;;;;;;;;5078964;28;19916;-83
2022/06/17 06:46:50;;;;;;;;;;;;;;;;;;5075067;28;20696;-81
2022/06/17 06:49:37;;;;;;;;;;;;;;;;;;5076566;28;19912;-82
2022/06/17 06:52:23;;;;;;;;;;;;;;;;;;5082151;28;20384;-87
2022/06/17 06:55:10;;;;;;;;;;;;;;;;;;5070680;28;19913;-87
2022/06/17 06:57:56;;;;;;;;;;;;;;;;;;5085993;28;19927;-88
2022/06/17 07:00:42;;;;;;;;;;;;;;;;;;5071287;28;19926;-89
2022/06/17 07:03:29;;;;;;;;;;;;;;;;;;5076087;28;19923;-87
2022/06/17 07:06:15;;;;;;;;;;;;;;;;;;5086791;28;20447;-87
2022/06/17 07:09:02;;;;;;;;;;;;;;;;;;5087453;28;19918;-87
2022/06/17 07:11:48;;;;;;;;;;;;;;;;;;5086798;28;20264;-85
2022/06/17 07:14:35;;;;;;;;;;;;;;;;;;5079119;28;19923;-88
2022/06/17 07:17:22;;;;;;;;;;;;;;;;;;5079389;28;20298;-86
2022/06/17 07:20:08;;;;;;;;;;;;;;;;;;5081018;28;20476;-86
2022/06/17 07:22:54;;;;;;;;;;;;;;;;;;5080687;28;19908;-87
2022/06/17 07:25:41;;;;;;;;;;;;;;;;;;5079338;28;19920;-87
2022/06/17 07:28:27;;;;;;;;;;;;;;;;;;5080819;28;19916;-88
2022/06/17 07:31:14;;;;;;;;;;;;;;;;;;5078704;28;19916;-87
2022/06/17 07:34:00;;;;;;;;;;;;;;;;;;5079746;28;20229;-87
2022/06/17 07:39:55;;;;;;;;;;;;;;;;;;5077796;28;19909;-86
2022/06/17 07:42:43;;;;;;;;;;;;;;;;;;5062518;28;19926;-86
2022/06/17 07:45:30;;;;;;;;;;;;;;;;;;5081401;28;19923;-88
2022/06/17 07:48:18;;;;;;;;;;;;;;;;;;5083292;28;19922;-86
2022/06/17 07:51:04;;;;;;;;;;;;;;;;;;5092814;28;20002;-78
2022/06/17 07:53:50;;;;;;;;;;;;;;;;;;5099245;28;19925;-89
2022/06/17 07:56:37;;;;;;;;;;;;;;;;;;5089228;28;20390;-88
2022/06/17 07:59:23;;;;;;;;;;;;;;;;;;5082583;28;19916;-88
2022/06/17 08:02:10;;;;;;;;;;;;;;;;;;5086172;28;19918;-88
2022/06/17 08:04:56;;;;;;;;;;;;;;;;;;5082421;28;19914;-89
2022/06/17 08:07:43;;;;;;;;;;;;;;;;;;5081639;28;20398;-89
2022/06/17 08:10:29;;;;;;;;;;;;;;;;;;5080921;28;19981;-87
2022/06/17 08:13:16;;;;;;;;;;;;;;;;;;5082615;28;20383;-86
2022/06/17 08:16:02;;;;;;;;;;;;;;;;;;5085114;28;19919;-86
2022/06/17 08:18:49;;;;;;;;;;;;;;;;;;5077530;28;19986;-86
2022/06/17 08:21:36;;;;;;;;;;;;;;;;;;5085174;28;20323;-87
2022/06/17 08:24:23;;;;;;;;;;;;;;;;;;5085445;28;19912;-82
2022/06/17 08:27:09;;;;;;;;;;;;;;;;;;5078804;28;20429;-82
2022/06/17 08:29:56;;;;;;;;;;;;;;;;;;5081415;28;19912;-85
2022/06/17 08:32:45;;;;;;;;;;;;;;;;;;5085297;28;19914;-83
2022/06/17 08:35:32;;;;;;;;;;;;;;;;;;5074319;28;19908;-84
2022/06/17 08:38:18;;;;;;;;;;;;;;;;;;5084812;28;20164;-87
2022/06/17 08:41:05;;;;;;;;;;;;;;;;;;5073756;28;19920;-86
2022/06/17 08:43:51;;;;;;;;;;;;;;;;;;5082638;28;20265;-86
2022/06/17 08:46:37;;;;;;;;;;;;;;;;;;5085382;28;19926;-86
2022/06/17 08:49:24;;;;;;;;;;;;;;;;;;5084088;28;20259;-86
2022/06/17 08:52:11;;;;;;;;;;;;;;;;;;5089020;28;19916;-86
2022/06/17 08:54:57;;;;;;;;;;;;;;;;;;5091786;28;20367;-84
2022/06/17 08:57:44;;;;;;;;;;;;;;;;;;5078392;28;19920;-86
2022/06/17 09:00:30;;;;;;;;;;;;;;;;;;5080713;28;19912;-86
2022/06/17 09:03:16;;;;;;;;;;;;;;;;;;5088596;28;19942;-88
2022/06/17 09:06:03;;;;;;;;;;;;;;;;;;5078577;28;19916;-87
2022/06/17 09:08:49;;;;;;;;;;;;;;;;;;5076270;28;19914;-84
2022/06/17 09:11:36;;;;;;;;;;;;;;;;;;5085862;28;19920;-85
2022/06/17 09:14:22;;;;;;;;;;;;;;;;;;5073412;28;20414;-84
2022/06/17 09:17:09;;;;;;;;;;;;;;;;;;5080942;28;20011;-86
2022/06/17 09:19:55;;;;;;;;;;;;;;;;;;5090072;28;20370;-83
2022/06/17 09:22:42;;;;;;;;;;;;;;;;;;5089650;28;19908;-85
2022/06/17 09:25:28;;;;;;;;;;;;;;;;;;5089035;28;19908;-86
2022/06/17 09:28:15;;;;;;;;;;;;;;;;;;5078934;28;19917;-84
2022/06/17 09:31:01;;;;;;;;;;;;;;;;;;5080771;28;19912;-86
2022/06/17 09:33:48;;;;;;;;;;;;;;;;;;5090826;28;19915;-84
2022/06/17 09:36:34;;;;;;;;;;;;;;;;;;5085950;28;20002;-89
2022/06/17 09:39:21;;;;;;;;;;;;;;;;;;5077082;28;19912;-86
2022/06/17 09:42:08;;;;;;;;;;;;;;;;;;5090715;28;19908;-88
2022/06/17 09:44:54;;;;;;;;;;;;;;;;;;5088937;28;19919;-87
2022/06/17 09:47:41;;;;;;;;;;;;;;;;;;5074134;28;20447;-88
2022/06/17 09:50:27;;;;;;;;;;;;;;;;;;5070805;28;19922;-88
2022/06/17 09:53:14;;;;;;;;;;;;;;;;;;5088831;28;19935;-87
2022/06/17 09:56:00;;;;;;;;;;;;;;;;;;5082766;28;20385;-88
2022/06/17 09:58:46;;;;;;;;;;;;;;;;;;5080386;28;19916;-87
2022/06/17 10:01:33;;;;;;;;;;;;;;;;;;5075883;28;20292;-88
2022/06/17 10:04:20;;;;;;;;;;;;;;;;;;5079688;28;19920;-88
2022/06/17 10:07:06;;;;;;;;;;;;;;;;;;5087056;28;19921;-89
2022/06/17 10:09:52;;;;;;;;;;;;;;;;;;5087846;28;19958;-89
2022/06/17 10:12:39;;;;;;;;;;;;;;;;;;5076804;28;19919;-88
2022/06/17 10:15:25;;;;;;;;;;;;;;;;;;5082077;28;20331;-89
2022/06/17 10:21:17;;;;;;;;;;;;;;;;;;5088104;28;19918;-88
2022/06/17 10:24:04;;;;;;;;;;;;;;;;;;5081824;28;19908;-88
2022/06/17 10:26:50;;;;;;;;;;;;;;;;;;5084775;28;19916;-88
2022/06/17 10:29:37;;;;;;;;;;;;;;;;;;5089826;28;19919;-90
2022/06/17 10:32:23;;;;;;;;;;;;;;;;;;5086410;28;19913;-87
2022/06/17 10:35:09;;;;;;;;;;;;;;;;;;5083307;28;19912;-89
2022/06/17 10:37:56;;;;;;;;;;;;;;;;;;5078460;28;19912;-89
2022/06/17 10:40:42;;;;;;;;;;;;;;;;;;5087667;28;19912;-88
2022/06/17 10:43:29;;;;;;;;;;;;;;;;;;5076832;28;19908;-89
2022/06/17 10:46:15;;;;;;;;;;;;;;;;;;5075676;28;19930;-89
2022/06/17 10:49:02;;;;;;;;;;;;;;;;;;5075125;28;19916;-88
2022/06/17 10:51:48;;;;;;;;;;;;;;;;;;5083328;28;19915;-89
2022/06/17 10:54:35;;;;;;;;;;;;;;;;;;5073014;28;19921;-89
2022/06/17 10:57:21;;;;;;;;;;;;;;;;;;5092588;28;19919;-89
2022/06/17 11:00:08;;;;;;;;;;;;;;;;;;5074901;28;19912;-88
2022/06/17 11:02:54;;;;;;;;;;;;;;;;;;5091965;28;19931;-89
2022/06/17 11:05:41;;;;;;;;;;;;;;;;;;5085372;28;19912;-89
2022/06/17 11:08:27;;;;;;;;;;;;;;;;;;5087300;28;20375;-89
2022/06/17 11:14:19;;;;;;;;;;;;;;;;;;5091739;28;19918;-89
2022/06/17 11:17:05;;;;;;;;;;;;;;;;;;5061769;28;19951;-88
2022/06/17 11:19:52;;;;;;;;;;;;;;;;;;5087631;28;19959;-89
2022/06/17 11:22:38;;;;;;;;;;;;;;;;;;5087324;28;19908;-89
2022/06/17 11:25:25;;;;;;;;;;;;;;;;;;5093451;28;19912;-89
2022/06/17 11:28:11;;;;;;;;;;;;;;;;;;5078799;28;19923;-89
2022/06/17 11:30:58;;;;;;;;;;;;;;;;;;5081380;28;19912;-87
2022/06/17 11:33:44;;;;;;;;;;;;;;;;;;5092770;28;19908;-89
2022/06/17 11:36:31;;;;;;;;;;;;;;;;;;5075421;28;20369;-88
2022/06/17 11:39:17;;;;;;;;;;;;;;;;;;5075603;28;19908;-87
2022/06/17 11:42:04;;;;;;;;;;;;;;;;;;5092716;28;19909;-88
2022/06/17 11:44:50;;;;;;;;;;;;;;;;;;5084264;28;19923;-87
2022/06/17 11:47:37;;;;;;;;;;;;;;;;;;5082941;28;19922;-89
2022/06/17 11:50:23;;;;;;;;;;;;;;;;;;5078340;28;19912;-88
2022/06/17 11:53:11;;;;;;;;;;;;;;;;;;5075965;28;19985;-88
2022/06/17 11:55:58;;;;;;;;;;;;;;;;;;5082207;28;19912;-89
2022/06/17 11:58:44;;;;;;;;;;;;;;;;;;5074863;28;20364;-88
2022/06/17 12:01:31;;;;;;;;;;;;;;;;;;5091594;28;19919;-89
2022/06/17 12:04:17;;;;;;;;;;;;;;;;;;5085038;28;19916;-89
2022/06/17 12:07:03;;;;;;;;;;;;;;;;;;5089408;28;19916;-89
2022/06/17 12:09:50;;;;;;;;;;;;;;;;;;5082336;28;19944;-87
2022/06/17 12:12:36;;;;;;;;;;;;;;;;;;5085611;28;20279;-89
2022/06/17 12:15:23;;;;;;;;;;;;;;;;;;5090982;28;19908;-88
2022/06/17 12:18:09;;;;;;;;;;;;;;;;;;5071844;28;19963;-89
2022/06/17 12:20:56;;;;;;;;;;;;;;;;;;5089551;28;19916;-88
2022/06/17 12:23:42;;;;;;;;;;;;;;;;;;5094002;28;19935;-89
2022/06/17 12:26:29;;;;;;;;;;;;;;;;;;5079203;28;19923;-89
2022/06/17 12:29:15;;;;;;;;;;;;;;;;;;5073437;28;19939;-90
2022/06/17 12:32:02;;;;;;;;;;;;;;;;;;5080776;28;20363;-89
2022/06/17 12:34:48;;;;;;;;;;;;;;;;;;5096075;28;19908;-89
2022/06/17 12:37:35;;;;;;;;;;;;;;;;;;5098855;28;19912;-91
2022/06/17 12:40:21;;;;;;;;;;;;;;;;;;5094812;28;19912;-89
2022/06/17 12:43:08;;;;;;;;;;;;;;;;;;5107987;28;19922;-88
2022/06/17 12:45:55;;;;;;;;;;;;;;;;;;5094841;28;19920;-89
2022/06/17 12:48:41;;;;;;;;;;;;;;;;;;5083162;28;19908;-89
2022/06/17 12:54:33;;;;;;;;;;;;;;;;;;5087748;28;19982;-90
2022/06/17 12:57:19;;;;;;;;;;;;;;;;;;5085468;28;20293;-88
2022/06/17 13:00:06;;;;;;;;;;;;;;;;;;5084045;28;19922;-87
2022/06/17 13:02:52;;;;;;;;;;;;;;;;;;5082734;28;19915;-89
2022/06/17 13:05:39;;;;;;;;;;;;;;;;;;5090122;28;20406;-89
2022/06/17 13:08:25;;;;;;;;;;;;;;;;;;5090760;28;19931;-88
2022/06/17 13:11:12;;;;;;;;;;;;;;;;;;5089652;28;19919;-88
2022/06/17 13:13:58;;;;;;;;;;;;;;;;;;5082799;28;19912;-88
2022/06/17 13:16:47;;;;;;;;;;;;;;;;;;5072882;28;20351;-87
2022/06/17 13:19:34;;;;;;;;;;;;;;;;;;5088018;28;19915;-88
2022/06/17 13:22:20;;;;;;;;;;;;;;;;;;5085010;28;20269;-88
2022/06/17 13:25:07;;;;;;;;;;;;;;;;;;5089528;28;20272;-89
2022/06/17 13:27:54;;;;;;;;;;;;;;;;;;5082155;28;19924;-87
2022/06/17 13:30:40;;;;;;;;;;;;;;;;;;5080441;28;19916;-89
2022/06/17 13:33:27;;;;;;;;;;;;;;;;;;5078457;28;20416;-89
2022/06/17 13:36:13;;;;;;;;;;;;;;;;;;5080975;28;19916;-88
2022/06/17 13:39:00;;;;;;;;;;;;;;;;;;5080179;28;20521;-87
2022/06/17 13:41:46;;;;;;;;;;;;;;;;;;5081881;28;19917;-90
2022/06/17 13:44:33;;;;;;;;;;;;;;;;;;5085241;28;19916;-88
2022/06/17 13:47:19;;;;;;;;;;;;;;;;;;5085324;28;20380;-87
2022/06/17 13:50:05;;;;;;;;;;;;;;;;;;5081243;28;19912;-87
2022/06/17 13:52:52;;;;;;;;;;;;;;;;;;5076816;28;19920;-89
2022/06/17 13:55:38;;;;;;;;;;;;;;;;;;5084350;28;19913;-88
2022/06/17 13:58:27;;;;;;;;;;;;;;;;;;5079423;28;20475;-87
2022/06/17 14:01:14;;;;;;;;;;;;;;;;;;5078214;28;19912;-89
2022/06/17 14:04:01;;;;;;;;;;;;;;;;;;5084714;28;19925;-88
2022/06/17 14:06:48;;;;;;;;;;;;;;;;;;5081607;28;19920;-87
2022/06/17 14:09:34;;;;;;;;;;;;;;;;;;5079552;28;19912;-88
2022/06/17 14:12:21;;;;;;;;;;;;;;;;;;5069694;28;19916;-89
2022/06/17 14:15:07;;;;;;;;;;;;;;;;;;5070848;28;19915;-88
2022/06/17 14:17:54;;;;;;;;;;;;;;;;;;5067671;28;19908;-88
2022/06/17 14:20:43;;;;;;;;;;;;;;;;;;5081570;28;20043;-88
2022/06/17 14:23:30;;;;;;;;;;;;;;;;;;5069556;28;19946;-89
2022/06/17 14:26:16;;;;;;;;;;;;;;;;;;5085721;28;19928;-86
2022/06/17 14:29:03;;;;;;;;;;;;;;;;;;5080617;28;20387;-88
2022/06/17 14:31:51;;;;;;;;;;;;;;;;;;5085076;28;19908;-89
2022/06/17 14:34:38;;;;;;;;;;;;;;;;;;5084003;28;19908;-89
2022/06/17 14:37:24;;;;;;;;;;;;;;;;;;5080934;28;19913;-87
2022/06/17 14:40:11;;;;;;;;;;;;;;;;;;5085501;28;19920;-87
2022/06/17 14:42:57;;;;;;;;;;;;;;;;;;5082840;28;19908;-89
2022/06/17 14:45:44;;;;;;;;;;;;;;;;;;5087555;28;19912;-89
2022/06/17 14:48:30;;;;;;;;;;;;;;;;;;5078930;28;19920;-87
2022/06/17 14:51:17;;;;;;;;;;;;;;;;;;5077356;28;19946;-87
2022/06/17 14:54:03;;;;;;;;;;;;;;;;;;5076965;28;19927;-86
2022/06/17 14:56:50;;;;;;;;;;;;;;;;;;5082370;28;19919;-86
2022/06/17 14:59:36;;;;;;;;;;;;;;;;;;5076716;28;19912;-85
2022/06/17 15:02:23;;;;;;;;;;;;;;;;;;5082401;28;19919;-86
2022/06/17 15:05:09;;;;;;;;;;;;;;;;;;5076701;28;19948;-89
2022/06/17 15:07:56;;;;;;;;;;;;;;;;;;5084148;28;19916;-86
2022/06/17 15:10:42;;;;;;;;;;;;;;;;;;5088904;28;20328;-88
2022/06/17 15:16:34;;;;;;;;;;;;;;;;;;5090258;28;19912;-87
2022/06/17 15:19:20;;;;;;;;;;;;;;;;;;5089233;28;19920;-88
2022/06/17 15:22:07;;;;;;;;;;;;;;;;;;5085909;28;19908;-86
2022/06/17 15:24:53;;;;;;;;;;;;;;;;;;5077219;28;20376;-89
2022/06/17 15:27:40;;;;;;;;;;;;;;;;;;5092122;28;19923;-87
2022/06/17 15:30:26;;;;;;;;;;;;;;;;;;5087773;28;19912;-89
2022/06/17 15:33:13;;;;;;;;;;;;;;;;;;5080146;28;19931;-88
2022/06/17 15:35:59;;;;;;;;;;;;;;;;;;5072714;28;19908;-88
2022/06/17 15:38:46;;;;;;;;;;;;;;;;;;5083436;28;19916;-86
2022/06/17 15:41:32;;;;;;;;;;;;;;;;;;5078400;28;19918;-89
2022/06/17 15:44:19;;;;;;;;;;;;;;;;;;5067474;28;19912;-90
2022/06/17 15:47:05;;;;;;;;;;;;;;;;;;5080430;28;19920;-87
2022/06/17 15:49:52;;;;;;;;;;;;;;;;;;5079413;28;19923;-88
2022/06/17 15:52:39;;;;;;;;;;;;;;;;;;5081288;28;19920;-89
2022/06/17 15:55:26;;;;;;;;;;;;;;;;;;5076085;28;19917;-88
2022/06/17 15:58:13;;;;;;;;;;;;;;;;;;5068369;28;19916;-88
2022/06/17 16:00:59;;;;;;;;;;;;;;;;;;5079097;28;19919;-87
2022/06/17 16:03:46;;;;;;;;;;;;;;;;;;5074346;28;19916;-87
2022/06/17 16:06:32;;;;;;;;;;;;;;;;;;5080173;28;20389;-88
2022/06/17 16:09:21;;;;;;;;;;;;;;;;;;5077902;28;20254;-88
2022/06/17 16:12:08;;;;;;;;;;;;;;;;;;5077835;28;19919;-87
2022/06/17 16:14:54;;;;;;;;;;;;;;;;;;5078687;28;19926;-88
2022/06/17 16:17:40;;;;;;;;;;;;;;;;;;5075156;28;20477;-88
2022/06/17 16:20:27;;;;;;;;;;;;;;;;;;5078059;28;19942;-88
2022/06/17 16:23:13;;;;;;;;;;;;;;;;;;5075542;28;20461;-87
2022/06/17 16:26:00;;;;;;;;;;;;;;;;;;5077135;28;19912;-86
2022/06/17 16:28:47;;;;;;;;;;;;;;;;;;5075040;28;19927;-85
2022/06/17 16:31:33;;;;;;;;;;;;;;;;;;5076433;28;19923;-86
2022/06/17 16:34:20;;;;;;;;;;;;;;;;;;5077516;28;20477;-85
2022/06/17 16:37:06;;;;;;;;;;;;;;;;;;5078362;28;19916;-87
2022/06/17 16:39:53;;;;;;;;;;;;;;;;;;5076880;28;19919;-85
2022/06/17 16:45:44;;;;;;;;;;;;;;;;;;5078868;28;19912;-85
2022/06/17 16:48:31;;;;;;;;;;;;;;;;;;5073938;28;19935;-85
2022/06/17 16:51:17;;;;;;;;;;;;;;;;;;5088121;28;19908;-84
2022/06/17 16:54:04;;;;;;;;;;;;;;;;;;5079286;28;19920;-85
2022/06/17 16:56:50;;;;;;;;;;;;;;;;;;5086758;28;19912;-84
2022/06/17 16:59:37;;;;;;;;;;;;;;;;;;5080136;28;19913;-85
2022/06/17 17:02:23;;;;;;;;;;;;;;;;;;5073580;28;19916;-86
2022/06/17 17:05:10;;;;;;;;;;;;;;;;;;5074750;28;19916;-85
2022/06/17 17:07:56;;;;;;;;;;;;;;;;;;5079807;28;19920;-87
2022/06/17 17:10:43;;;;;;;;;;;;;;;;;;5084292;28;19916;-89
2022/06/17 17:13:29;;;;;;;;;;;;;;;;;;5079043;28;19909;-85
2022/06/17 17:16:16;;;;;;;;;;;;;;;;;;5080211;28;19912;-83
2022/06/17 17:19:02;;;;;;;;;;;;;;;;;;5084092;28;19919;-83
2022/06/17 17:21:49;;;;;;;;;;;;;;;;;;5071921;28;20284;-82
2022/06/17 17:24:35;;;;;;;;;;;;;;;;;;5076474;28;19919;-83
2022/06/17 17:27:22;;;;;;;;;;;;;;;;;;5078837;28;20313;-83
2022/06/17 17:30:08;;;;;;;;;;;;;;;;;;5083801;28;19934;-84
2022/06/17 17:32:55;;;;;;;;;;;;;;;;;;5084155;28;19934;-84
2022/06/17 17:35:41;;;;;;;;;;;;;;;;;;5085312;28;19916;-83
2022/06/17 17:38:28;;;;;;;;;;;;;;;;;;5081507;28;19913;-83
2022/06/17 17:41:23;;;;;;;;;;;;;;;;;;5092296;28;19919;-82
2022/06/17 17:44:10;;;;;;;;;;;;;;;;;;5092388;28;19923;-83
2022/06/17 17:46:56;;;;;;;;;;;;;;;;;;5089748;28;19971;-83
2022/06/17 17:49:43;;;;;;;;;;;;;;;;;;5091183;28;19926;-83
2022/06/17 17:52:30;;;;;;;;;;;;;;;;;;5083017;28;19927;-81
2022/06/17 17:55:16;;;;;;;;;;;;;;;;;;5082975;28;19917;-83
2022/06/17 17:58:03;;;;;;;;;;;;;;;;;;5080914;28;19919;-81
2022/06/17 18:00:51;;;;;;;;;;;;;;;;;;5084542;28;19922;-87
2022/06/17 18:03:38;;;;;;;;;;;;;;;;;;5080138;28;19912;-86
2022/06/17 18:06:25;;;;;;;;;;;;;;;;;;5084259;28;20603;-79
2022/06/17 18:09:11;;;;;;;;;;;;;;;;;;5088813;28;19970;-87
2022/06/17 18:11:58;;;;;;;;;;;;;;;;;;5085170;28;19908;-88
2022/06/17 18:14:45;;;;;;;;;;;;;;;;;;5089391;28;19915;-88
2022/06/17 18:17:33;;;;;;;;;;;;;;;;;;5080680;28;19943;-92
2022/06/17 18:20:19;;;;;;;;;;;;;;;;;;5087487;28;19912;-91
2022/06/17 18:23:10;;;;;;;;;;;;;;;;;;5074765;28;20029;-90
2022/06/17 18:25:56;;;;;;;;;;;;;;;;;;5089127;28;19922;-91
2022/06/17 18:28:43;;;;;;;;;;;;;;;;;;5087404;28;19930;-88
2022/06/17 18:31:31;;;;;;;;;;;;;;;;;;5089387;28;19919;-90
2022/06/17 18:34:18;;;;;;;;;;;;;;;;;;5087095;28;19908;-81
2022/06/17 18:37:04;;;;;;;;;;;;;;;;;;5082558;28;20008;-81
2022/06/17 18:39:51;;;;;;;;;;;;;;;;;;5062161;28;19916;-81
2022/06/17 18:42:40;;;;;;;;;;;;;;;;;;5074876;28;19916;-79
2022/06/17 18:45:26;;;;;;;;;;;;;;;;;;5074531;28;20292;-80
2022/06/17 18:48:13;;;;;;;;;;;;;;;;;;5073100;28;20405;-84
2022/06/17 18:50:59;;;;;;;;;;;;;;;;;;5077459;28;19916;-85
2022/06/17 18:53:46;;;;;;;;;;;;;;;;;;5078527;28;19925;-84
2022/06/17 18:56:32;;;;;;;;;;;;;;;;;;5078931;28;19916;-85
2022/06/17 18:59:19;;;;;;;;;;;;;;;;;;5077302;28;19920;-84
2022/06/17 19:02:05;;;;;;;;;;;;;;;;;;5074573;28;19921;-81
2022/06/17 19:04:52;;;;;;;;;;;;;;;;;;5074659;28;19916;-85
2022/06/17 19:19:59;;;;;;;;;;;;;;;;;;5083834;28;19923;-85
2022/06/17 19:22:46;;;;;;;;;;;;;;;;;;5073180;28;19919;-81
2022/06/17 19:25:32;;;;;;;;;;;;;;;;;;5077230;28;19916;-83
2022/06/17 19:28:19;;;;;;;;;;;;;;;;;;5081186;28;19927;-82